createdAt,value
2018-09-23T00:00:22.578Z,1011.30
2018-09-23T00:01:22.578Z,1011.25
2018-09-23T00:02:22.501Z,1011.20
2018-09-23T00:03:22.454Z,1011.11
2018-09-23T00:04:22.432Z,1011.08
2018-09-23T00:05:22.376Z,1011.02
2018-09-23T00:06:22.318Z,1011.02
2018-09-23T00:07:22.280Z,1010.98
2018-09-23T00:08:22.228Z,1011.00
2018-09-23T00:09:22.235Z,1010.93
2018-09-23T00:10:22.172Z,1010.93
2018-09-23T00:11:22.131Z,1010.90
2018-09-23T00:12:22.109Z,1010.88
2018-09-23T00:13:22.042Z,1010.87
2018-09-23T00:14:22.010Z,1010.85
2018-09-23T00:15:21.957Z,1010.82
2018-09-23T00:16:21.913Z,1010.78
2018-09-23T00:17:21.878Z,1010.74
2018-09-23T00:18:21.818Z,1010.79
2018-09-23T00:19:21.806Z,1010.79
2018-09-23T00:20:21.739Z,1010.82
2018-09-23T00:21:21.714Z,1010.79
2018-09-23T00:22:21.711Z,1010.78
2018-09-23T00:23:21.637Z,1010.66
2018-09-23T00:24:21.608Z,1010.63
2018-09-23T00:25:21.536Z,1010.64
2018-09-23T00:26:21.518Z,1010.58
2018-09-23T00:27:21.461Z,1010.52
2018-09-23T00:28:21.416Z,1010.50
2018-09-23T00:29:21.400Z,1010.49
2018-09-23T00:30:21.352Z,1010.43
2018-09-23T00:31:21.298Z,1010.28
2018-09-23T00:32:21.255Z,1010.21
2018-09-23T00:33:32.687Z,1010.21
2018-09-23T00:34:21.162Z,1010.16
2018-09-23T00:35:21.138Z,1010.18
2018-09-23T00:36:21.080Z,1010.18
2018-09-23T00:37:21.036Z,1010.15
2018-09-23T00:38:20.995Z,1010.21
2018-09-23T00:39:20.962Z,1010.24
2018-09-23T00:40:20.948Z,1010.15
2018-09-23T00:41:20.875Z,1010.09
2018-09-23T00:42:20.844Z,1010.08
2018-09-23T00:43:20.796Z,1010.09
2018-09-23T00:44:20.753Z,1010.12
2018-09-23T00:45:20.708Z,1010.10
2018-09-23T00:46:20.694Z,1010.15
2018-09-23T00:47:20.629Z,1010.11
2018-09-23T00:48:20.582Z,1010.05
2018-09-23T00:49:20.535Z,1009.96
2018-09-23T00:50:20.512Z,1009.95
2018-09-23T00:51:20.504Z,1009.94
2018-09-23T00:52:20.416Z,1009.89
2018-09-23T00:53:20.392Z,1009.92
2018-09-23T00:54:20.345Z,1009.92
2018-09-23T00:55:20.293Z,1009.96
2018-09-23T00:56:20.272Z,1009.94
2018-09-23T00:57:20.218Z,1009.94
2018-09-23T00:58:20.206Z,1010.00
2018-09-23T00:59:20.134Z,1010.01
2018-09-23T01:00:20.105Z,1010.00
2018-09-23T01:01:20.067Z,1009.99
2018-09-23T01:02:20.009Z,1009.98
2018-09-23T01:03:19.978Z,1009.94
2018-09-23T01:04:19.958Z,1009.99
2018-09-23T01:05:19.888Z,1009.98
2018-09-23T01:06:19.883Z,1009.92
2018-09-23T01:07:19.813Z,1009.84
2018-09-23T01:08:19.755Z,1009.90
2018-09-23T01:09:19.722Z,1009.97
2018-09-23T01:10:19.727Z,1009.97
2018-09-23T01:11:19.645Z,1009.98
2018-09-23T01:12:19.645Z,1009.88
2018-09-23T01:13:19.591Z,1009.90
2018-09-23T01:14:19.516Z,1009.88
2018-09-23T01:15:19.481Z,1009.82
2018-09-23T01:16:19.481Z,1009.82
2018-09-23T01:17:19.415Z,1009.84
2018-09-23T01:18:19.350Z,1009.79
2018-09-23T01:19:19.312Z,1009.76
2018-09-23T01:20:28.245Z,1009.73
2018-09-23T01:21:19.239Z,1009.73
2018-09-23T01:22:19.182Z,1009.73
2018-09-23T01:23:19.167Z,1009.72
2018-09-23T01:24:19.104Z,1009.68
2018-09-23T01:25:19.066Z,1009.65
2018-09-23T01:26:19.022Z,1009.64
2018-09-23T01:27:18.981Z,1009.63
2018-09-23T01:28:18.959Z,1009.58
2018-09-23T01:29:18.932Z,1009.63
2018-09-23T01:30:18.863Z,1009.64
2018-09-23T01:31:18.887Z,1009.65
2018-09-23T01:32:18.770Z,1009.68
2018-09-23T01:33:28.794Z,1009.76
2018-09-23T01:34:18.719Z,1009.75
2018-09-23T01:35:18.648Z,1009.73
2018-09-23T01:36:18.618Z,1009.68
2018-09-23T01:37:18.582Z,1009.69
2018-09-23T01:38:18.548Z,1009.64
2018-09-23T01:39:18.492Z,1009.60
2018-09-23T01:40:18.442Z,1009.62
2018-09-23T01:41:18.419Z,1009.62
2018-09-23T01:42:18.365Z,1009.61
2018-09-23T01:43:18.308Z,1009.61
2018-09-23T01:44:18.288Z,1009.53
2018-09-23T01:45:18.231Z,1009.53
2018-09-23T01:46:18.204Z,1009.50
2018-09-23T01:47:18.151Z,1009.42
2018-09-23T01:48:18.100Z,1009.36
2018-09-23T01:49:18.109Z,1009.31
2018-09-23T01:50:18.026Z,1009.26
2018-09-23T01:51:18.025Z,1009.24
2018-09-23T01:52:17.958Z,1009.26
2018-09-23T01:53:17.915Z,1009.26
2018-09-23T01:54:17.893Z,1009.18
2018-09-23T01:55:17.833Z,1009.16
2018-09-23T01:56:17.781Z,1009.18
2018-09-23T01:57:17.753Z,1009.14
2018-09-23T01:58:17.716Z,1009.12
2018-09-23T01:59:17.674Z,1009.10
2018-09-23T02:00:17.678Z,1009.12
2018-09-23T02:01:17.579Z,1009.16
2018-09-23T02:02:17.559Z,1009.16
2018-09-23T02:03:17.530Z,1009.15
2018-09-23T02:04:17.468Z,1009.12
2018-09-23T02:05:17.462Z,1009.12
2018-09-23T02:06:17.396Z,1009.07
2018-09-23T02:07:17.355Z,1009.05
2018-09-23T02:08:17.285Z,1009.06
2018-09-23T02:09:17.248Z,1009.02
2018-09-23T02:10:17.229Z,1008.96
2018-09-23T02:11:17.169Z,1008.95
2018-09-23T02:12:17.136Z,1008.93
2018-09-23T02:13:17.085Z,1008.93
2018-09-23T02:14:17.081Z,1008.91
2018-09-23T02:15:17.026Z,1008.89
2018-09-23T02:16:16.981Z,1008.89
2018-09-23T02:17:16.929Z,1008.87
2018-09-23T02:18:16.880Z,1008.90
2018-09-23T02:19:16.852Z,1008.86
2018-09-23T02:20:16.811Z,1008.88
2018-09-23T02:21:16.811Z,1008.82
2018-09-23T02:22:16.747Z,1008.79
2018-09-23T02:23:16.675Z,1008.77
2018-09-23T02:24:16.683Z,1008.72
2018-09-23T02:25:16.602Z,1008.67
2018-09-23T02:26:16.582Z,1008.63
2018-09-23T02:27:16.506Z,1008.71
2018-09-23T02:28:16.510Z,1008.68
2018-09-23T02:29:16.436Z,1008.70
2018-09-23T02:30:16.395Z,1008.73
2018-09-23T02:31:16.420Z,1008.72
2018-09-23T02:32:16.314Z,1008.63
2018-09-23T02:33:16.257Z,1008.65
2018-09-23T02:34:16.234Z,1008.65
2018-09-23T02:35:16.184Z,1008.68
2018-09-23T02:36:27.139Z,1008.72
2018-09-23T02:37:16.114Z,1008.70
2018-09-23T02:38:16.076Z,1008.64
2018-09-23T02:39:16.006Z,1008.57
2018-09-23T02:40:15.983Z,1008.56
2018-09-23T02:41:15.930Z,1008.60
2018-09-23T02:42:15.915Z,1008.60
2018-09-23T02:43:15.847Z,1008.57
2018-09-23T02:44:15.817Z,1008.56
2018-09-23T02:45:15.766Z,1008.54
2018-09-23T02:46:15.753Z,1008.59
2018-09-23T02:47:15.721Z,1008.57
2018-09-23T02:48:15.659Z,1008.56
2018-09-23T02:49:15.607Z,1008.49
2018-09-23T02:50:15.561Z,1008.48
2018-09-23T02:51:15.544Z,1008.42
2018-09-23T02:52:15.514Z,1008.38
2018-09-23T02:53:15.448Z,1008.40
2018-09-23T02:54:15.403Z,1008.39
2018-09-23T02:55:15.364Z,1008.38
2018-09-23T02:56:15.352Z,1008.33
2018-09-23T02:57:15.289Z,1008.30
2018-09-23T02:58:15.258Z,1008.27
2018-09-23T02:59:15.209Z,1008.19
2018-09-23T03:00:15.158Z,1008.14
2018-09-23T03:01:15.138Z,1008.13
2018-09-23T03:02:15.072Z,1008.10
2018-09-23T03:03:15.082Z,1008.16
2018-09-23T03:04:14.985Z,1008.12
2018-09-23T03:05:14.948Z,1008.14
2018-09-23T03:06:14.920Z,1008.13
2018-09-23T03:07:14.870Z,1008.12
2018-09-23T03:08:14.844Z,1008.06
2018-09-23T03:09:14.783Z,1007.99
2018-09-23T03:10:14.746Z,1007.91
2018-09-23T03:11:14.702Z,1007.92
2018-09-23T03:12:14.671Z,1007.82
2018-09-23T03:13:14.636Z,1007.83
2018-09-23T03:14:14.612Z,1007.85
2018-09-23T03:15:14.539Z,1007.83
2018-09-23T03:16:14.498Z,1007.88
2018-09-23T03:17:14.473Z,1007.91
2018-09-23T03:18:24.841Z,1007.89
2018-09-23T03:19:14.389Z,1007.89
2018-09-23T03:20:14.322Z,1007.88
2018-09-23T03:21:14.277Z,1007.83
2018-09-23T03:22:14.246Z,1007.81
2018-09-23T03:23:14.245Z,1007.85
2018-09-23T03:24:14.201Z,1007.84
2018-09-23T03:25:14.129Z,1007.84
2018-09-23T03:26:14.112Z,1007.90
2018-09-23T03:27:14.041Z,1007.91
2018-09-23T03:28:14.002Z,1007.89
2018-09-23T03:29:13.968Z,1007.88
2018-09-23T03:30:13.938Z,1007.87
2018-09-23T03:31:13.885Z,1007.88
2018-09-23T03:32:13.848Z,1007.85
2018-09-23T03:33:13.793Z,1007.86
2018-09-23T03:34:13.752Z,1007.84
2018-09-23T03:35:13.761Z,1007.80
2018-09-23T03:36:13.692Z,1007.74
2018-09-23T03:37:13.640Z,1007.72
2018-09-23T03:38:13.594Z,1007.63
2018-09-23T03:39:13.561Z,1007.63
2018-09-23T03:40:13.538Z,1007.54
2018-09-23T03:41:13.471Z,1007.52
2018-09-23T03:42:13.417Z,1007.41
2018-09-23T03:43:13.391Z,1007.36
2018-09-23T03:44:13.348Z,1007.35
2018-09-23T03:45:13.339Z,1007.35
2018-09-23T03:46:13.255Z,1007.44
2018-09-23T03:47:13.222Z,1007.51
2018-09-23T03:48:13.174Z,1007.52
2018-09-23T03:49:13.134Z,1007.52
2018-09-23T03:50:13.127Z,1007.49
2018-09-23T03:51:13.045Z,1007.51
2018-09-23T03:52:13.032Z,1007.48
2018-09-23T03:53:12.966Z,1007.43
2018-09-23T03:54:12.932Z,1007.38
2018-09-23T03:55:12.920Z,1007.31
2018-09-23T03:56:12.850Z,1007.30
2018-09-23T03:57:12.812Z,1007.24
2018-09-23T03:58:12.798Z,1007.27
2018-09-23T03:59:12.719Z,1007.28
2018-09-23T04:00:12.707Z,1007.22
2018-09-23T04:01:12.655Z,1007.15
2018-09-23T04:02:12.602Z,1007.11
2018-09-23T04:03:12.570Z,1007.07
2018-09-23T04:04:12.527Z,1007.07
2018-09-23T04:05:12.517Z,1007.06
2018-09-23T04:06:12.447Z,1007.09
2018-09-23T04:07:12.398Z,1007.07
2018-09-23T04:08:12.365Z,1007.14
2018-09-23T04:09:12.357Z,1007.10
2018-09-23T04:10:12.323Z,1007.08
2018-09-23T04:11:12.243Z,1007.05
2018-09-23T04:12:12.285Z,1007.02
2018-09-23T04:13:12.173Z,1006.99
2018-09-23T04:14:12.131Z,1006.91
2018-09-23T04:15:12.107Z,1006.91
2018-09-23T04:16:12.022Z,1006.87
2018-09-23T04:17:11.987Z,1006.80
2018-09-23T04:18:11.942Z,1006.74
2018-09-23T04:19:11.936Z,1006.70
2018-09-23T04:20:11.868Z,1006.69
2018-09-23T04:21:11.841Z,1006.68
2018-09-23T04:22:11.779Z,1006.63
2018-09-23T04:23:11.743Z,1006.62
2018-09-23T04:24:11.748Z,1006.54
2018-09-23T04:25:11.662Z,1006.53
2018-09-23T04:26:11.650Z,1006.58
2018-09-23T04:27:11.565Z,1006.57
2018-09-23T04:28:11.537Z,1006.52
2018-09-23T04:29:21.367Z,1006.52
2018-09-23T04:30:11.532Z,1006.55
2018-09-23T04:31:11.421Z,1006.49
2018-09-23T04:32:11.375Z,1006.49
2018-09-23T04:33:11.327Z,1006.43
2018-09-23T04:34:11.301Z,1006.48
2018-09-23T04:35:11.245Z,1006.49
2018-09-23T04:36:11.211Z,1006.49
2018-09-23T04:37:11.168Z,1006.55
2018-09-23T04:38:11.129Z,1006.55
2018-09-23T04:39:11.104Z,1006.51
2018-09-23T04:40:11.097Z,1006.44
2018-09-23T04:41:11.026Z,1006.43
2018-09-23T04:42:10.949Z,1006.39
2018-09-23T04:43:10.931Z,1006.36
2018-09-23T04:44:10.906Z,1006.37
2018-09-23T04:45:10.834Z,1006.34
2018-09-23T04:46:10.797Z,1006.35
2018-09-23T04:47:10.751Z,1006.36
2018-09-23T04:48:10.712Z,1006.35
2018-09-23T04:49:10.723Z,1006.33
2018-09-23T04:50:10.649Z,1006.32
2018-09-23T04:51:10.635Z,1006.42
2018-09-23T04:52:10.564Z,1006.45
2018-09-23T04:53:20.870Z,1006.47
2018-09-23T04:54:10.476Z,1006.48
2018-09-23T04:55:10.492Z,1006.51
2018-09-23T04:56:10.389Z,1006.52
2018-09-23T04:57:10.342Z,1006.59
2018-09-23T04:58:10.300Z,1006.63
2018-09-23T04:59:10.279Z,1006.61
2018-09-23T05:00:10.231Z,1006.60
2018-09-23T05:01:10.183Z,1006.61
2018-09-23T05:02:10.179Z,1006.61
2018-09-23T05:03:10.129Z,1006.58
2018-09-23T05:04:10.099Z,1006.61
2018-09-23T05:05:10.034Z,1006.58
2018-09-23T05:06:09.976Z,1006.57
2018-09-23T05:07:09.985Z,1006.60
2018-09-23T05:08:09.912Z,1006.63
2018-09-23T05:09:09.857Z,1006.58
2018-09-23T05:10:09.846Z,1006.60
2018-09-23T05:11:09.766Z,1006.59
2018-09-23T05:12:09.735Z,1006.59
2018-09-23T05:13:09.717Z,1006.54
2018-09-23T05:14:09.679Z,1006.51
2018-09-23T05:15:09.606Z,1006.47
2018-09-23T05:16:09.566Z,1006.48
2018-09-23T05:17:19.980Z,1006.47
2018-09-23T05:18:09.493Z,1006.48
2018-09-23T05:19:09.432Z,1006.42
2018-09-23T05:20:09.464Z,1006.45
2018-09-23T05:21:09.541Z,1006.37
2018-09-23T05:22:09.312Z,1006.37
2018-09-23T05:23:09.295Z,1006.34
2018-09-23T05:24:09.251Z,1006.40
2018-09-23T05:25:09.186Z,1006.40
2018-09-23T05:26:09.142Z,1006.41
2018-09-23T05:27:09.111Z,1006.36
2018-09-23T05:28:09.107Z,1006.34
2018-09-23T05:29:09.024Z,1006.24
2018-09-23T05:30:09.028Z,1006.18
2018-09-23T05:31:08.979Z,1006.15
2018-09-23T05:32:08.913Z,1006.18
2018-09-23T05:33:08.895Z,1006.13
2018-09-23T05:34:08.854Z,1006.16
2018-09-23T05:35:08.801Z,1006.19
2018-09-23T05:36:08.734Z,1006.20
2018-09-23T05:37:08.706Z,1006.20
2018-09-23T05:38:08.696Z,1006.12
2018-09-23T05:39:08.635Z,1006.12
2018-09-23T05:40:08.600Z,1006.11
2018-09-23T05:41:08.560Z,1006.11
2018-09-23T05:42:08.490Z,1006.15
2018-09-23T05:43:08.474Z,1006.17
2018-09-23T05:44:08.459Z,1006.19
2018-09-23T05:45:16.429Z,1006.17
2018-09-23T05:46:08.322Z,1006.15
2018-09-23T05:47:08.304Z,1006.11
2018-09-23T05:48:08.275Z,1006.09
2018-09-23T05:49:08.215Z,1006.14
2018-09-23T05:50:08.176Z,1006.08
2018-09-23T05:51:08.137Z,1006.06
2018-09-23T05:52:08.098Z,1005.98
2018-09-23T05:53:08.054Z,1006.02
2018-09-23T05:54:08.000Z,1005.95
2018-09-23T05:55:07.967Z,1005.94
2018-09-23T05:56:07.964Z,1005.91
2018-09-23T05:57:07.921Z,1005.89
2018-09-23T05:58:07.829Z,1005.87
2018-09-23T05:59:07.793Z,1005.90
2018-09-23T06:00:07.786Z,1005.84
2018-09-23T06:01:07.719Z,1005.87
2018-09-23T06:02:07.725Z,1005.84
2018-09-23T06:03:07.690Z,1005.83
2018-09-23T06:04:07.589Z,1005.89
2018-09-23T06:05:07.561Z,1005.91
2018-09-23T06:06:07.523Z,1005.91
2018-09-23T06:07:07.498Z,1005.94
2018-09-23T06:08:07.438Z,1005.96
2018-09-23T06:09:07.398Z,1005.98
2018-09-23T06:10:07.367Z,1005.99
2018-09-23T06:11:07.351Z,1005.98
2018-09-23T06:12:07.288Z,1005.98
2018-09-23T06:13:07.218Z,1005.96
2018-09-23T06:14:07.199Z,1006.01
2018-09-23T06:15:07.158Z,1006.03
2018-09-23T06:16:07.120Z,1006.04
2018-09-23T06:17:07.093Z,1006.06
2018-09-23T06:18:07.042Z,1006.07
2018-09-23T06:19:06.981Z,1006.04
2018-09-23T06:20:06.937Z,1006.04
2018-09-23T06:21:06.906Z,1006.00
2018-09-23T06:22:06.884Z,1005.99
2018-09-23T06:23:06.834Z,1005.96
2018-09-23T06:24:06.771Z,1005.94
2018-09-23T06:25:06.774Z,1005.92
2018-09-23T06:26:06.704Z,1005.89
2018-09-23T06:27:06.678Z,1005.92
2018-09-23T06:28:06.619Z,1005.92
2018-09-23T06:29:06.588Z,1005.90
2018-09-23T06:30:06.521Z,1005.83
2018-09-23T06:31:06.492Z,1005.81
2018-09-23T06:32:06.479Z,1005.78
2018-09-23T06:33:06.439Z,1005.76
2018-09-23T06:34:06.425Z,1005.74
2018-09-23T06:35:06.330Z,1005.71
2018-09-23T06:36:06.323Z,1005.74
2018-09-23T06:37:06.311Z,1005.72
2018-09-23T06:38:06.217Z,1005.77
2018-09-23T06:39:06.178Z,1005.75
2018-09-23T06:40:06.153Z,1005.79
2018-09-23T06:41:06.115Z,1005.72
2018-09-23T06:42:06.073Z,1005.75
2018-09-23T06:43:06.008Z,1005.76
2018-09-23T06:44:06.047Z,1005.73
2018-09-23T06:45:05.923Z,1005.71
2018-09-23T06:46:05.943Z,1005.74
2018-09-23T06:47:05.876Z,1005.70
2018-09-23T06:48:05.805Z,1005.69
2018-09-23T06:49:05.761Z,1005.70
2018-09-23T06:50:05.729Z,1005.73
2018-09-23T06:51:05.763Z,1005.72
2018-09-23T06:52:05.647Z,1005.72
2018-09-23T06:53:05.628Z,1005.75
2018-09-23T06:54:05.584Z,1005.77
2018-09-23T06:55:05.526Z,1005.80
2018-09-23T06:56:05.538Z,1005.81
2018-09-23T06:57:05.463Z,1005.84
2018-09-23T06:58:05.415Z,1005.84
2018-09-23T06:59:05.353Z,1005.76
2018-09-23T07:00:05.378Z,1005.77
2018-09-23T07:01:05.306Z,1005.77
2018-09-23T07:02:05.232Z,1005.73
2018-09-23T07:03:05.181Z,1005.71
2018-09-23T07:04:05.176Z,1005.68
2018-09-23T07:05:05.193Z,1005.75
2018-09-23T07:06:05.117Z,1005.72
2018-09-23T07:07:05.029Z,1005.71
2018-09-23T07:08:05.004Z,1005.74
2018-09-23T07:09:04.962Z,1005.71
2018-09-23T07:10:04.935Z,1005.69
2018-09-23T07:11:05.015Z,1005.69
2018-09-23T07:12:04.927Z,1005.68
2018-09-23T07:13:04.844Z,1005.70
2018-09-23T07:14:04.754Z,1005.66
2018-09-23T07:15:04.739Z,1005.64
2018-09-23T07:16:04.691Z,1005.61
2018-09-23T07:17:04.642Z,1005.64
2018-09-23T07:18:04.733Z,1005.62
2018-09-23T07:19:04.583Z,1005.63
2018-09-23T07:20:04.533Z,1005.61
2018-09-23T07:21:04.478Z,1005.59
2018-09-23T07:22:04.470Z,1005.62
2018-09-23T07:23:04.404Z,1005.59
2018-09-23T07:24:04.545Z,1005.65
2018-09-23T07:25:04.340Z,1005.65
2018-09-23T07:26:04.282Z,1005.61
2018-09-23T07:27:04.248Z,1005.66
2018-09-23T07:28:04.194Z,1005.61
2018-09-23T07:29:04.222Z,1005.67
2018-09-23T07:30:04.211Z,1005.64
2018-09-23T07:31:04.075Z,1005.65
2018-09-23T07:32:04.048Z,1005.65
2018-09-23T07:33:04.016Z,1005.63
2018-09-23T07:34:03.954Z,1005.61
2018-09-23T07:35:03.935Z,1005.62
2018-09-23T07:36:03.872Z,1005.64
2018-09-23T07:37:03.844Z,1005.64
2018-09-23T07:38:03.784Z,1005.63
2018-09-23T07:39:15.075Z,1005.65
2018-09-23T07:40:03.783Z,1005.58
2018-09-23T07:41:03.666Z,1005.58
2018-09-23T07:42:03.645Z,1005.55
2018-09-23T07:43:03.587Z,1005.51
2018-09-23T07:44:03.549Z,1005.52
2018-09-23T07:45:03.679Z,1005.52
2018-09-23T07:46:03.474Z,1005.46
2018-09-23T07:47:03.426Z,1005.43
2018-09-23T07:48:03.534Z,1005.41
2018-09-23T07:49:03.367Z,1005.42
2018-09-23T07:50:03.354Z,1005.40
2018-09-23T07:51:03.263Z,1005.31
2018-09-23T07:52:03.237Z,1005.26
2018-09-23T07:53:03.219Z,1005.22
2018-09-23T07:54:03.161Z,1005.16
2018-09-23T07:55:03.170Z,1005.13
2018-09-23T07:56:03.116Z,1005.10
2018-09-23T07:57:03.030Z,1005.13
2018-09-23T07:58:02.999Z,1005.21
2018-09-23T07:59:02.972Z,1005.23
2018-09-23T08:00:02.943Z,1005.25
2018-09-23T08:01:02.909Z,1005.25
2018-09-23T08:02:02.877Z,1005.26
2018-09-23T08:03:02.797Z,1005.25
2018-09-23T08:04:02.780Z,1005.27
2018-09-23T08:05:02.720Z,1005.30
2018-09-23T08:06:02.747Z,1005.24
2018-09-23T08:07:02.664Z,1005.23
2018-09-23T08:08:02.630Z,1005.28
2018-09-23T08:09:02.589Z,1005.29
2018-09-23T08:10:02.534Z,1005.29
2018-09-23T08:11:02.472Z,1005.32
2018-09-23T08:12:02.437Z,1005.36
2018-09-23T08:13:02.580Z,1005.44
2018-09-23T08:14:02.784Z,1005.43
2018-09-23T08:15:02.575Z,1005.43
2018-09-23T08:16:02.307Z,1005.38
2018-09-23T08:17:02.309Z,1005.40
2018-09-23T08:18:02.223Z,1005.39
2018-09-23T08:19:02.258Z,1005.39
2018-09-23T08:20:02.195Z,1005.41
2018-09-23T08:21:02.268Z,1005.41
2018-09-23T08:22:02.044Z,1005.42
2018-09-23T08:23:02.052Z,1005.43
2018-09-23T08:24:01.995Z,1005.37
2018-09-23T08:25:01.937Z,1005.31
2018-09-23T08:26:01.892Z,1005.26
2018-09-23T08:27:01.850Z,1005.21
2018-09-23T08:28:01.807Z,1005.16
2018-09-23T08:29:01.848Z,1005.12
2018-09-23T08:30:01.773Z,1005.11
2018-09-23T08:31:01.681Z,1005.09
2018-09-23T08:32:01.645Z,1005.11
2018-09-23T08:33:01.680Z,1005.11
2018-09-23T08:34:01.614Z,1005.13
2018-09-23T08:35:01.539Z,1005.17
2018-09-23T08:36:01.548Z,1005.11
2018-09-23T08:37:01.451Z,1005.10
2018-09-23T08:38:01.437Z,1005.04
2018-09-23T08:39:01.443Z,1005.04
2018-09-23T08:40:01.379Z,1005.03
2018-09-23T08:41:01.312Z,1005.04
2018-09-23T08:42:01.264Z,1004.98
2018-09-23T08:43:01.328Z,1004.98
2018-09-23T08:44:01.222Z,1004.98
2018-09-23T08:45:01.147Z,1004.97
2018-09-23T08:46:01.145Z,1004.95
2018-09-23T08:47:01.061Z,1004.90
2018-09-23T08:48:01.118Z,1004.88
2018-09-23T08:49:01.001Z,1004.94
2018-09-23T08:50:00.954Z,1004.97
2018-09-23T08:51:00.912Z,1004.98
2018-09-23T08:52:00.876Z,1005.03
2018-09-23T08:53:00.857Z,1005.01
2018-09-23T08:54:00.787Z,1005.04
2018-09-23T08:55:00.749Z,1005.03
2018-09-23T08:56:00.718Z,1005.06
2018-09-23T08:57:00.674Z,1005.02
2018-09-23T08:58:00.665Z,1004.97
2018-09-23T08:59:00.600Z,1004.86
2018-09-23T09:00:00.557Z,1004.84
2018-09-23T09:01:00.521Z,1004.77
2018-09-23T09:02:00.488Z,1004.75
2018-09-23T09:03:00.461Z,1004.71
2018-09-23T09:04:00.394Z,1004.69
2018-09-23T09:05:00.371Z,1004.59
2018-09-23T09:06:00.315Z,1004.60
2018-09-23T09:07:00.278Z,1004.62
2018-09-23T09:08:00.264Z,1004.58
2018-09-23T09:09:00.192Z,1004.61
2018-09-23T09:10:00.174Z,1004.63
2018-09-23T09:11:00.132Z,1004.65
2018-09-23T09:12:00.084Z,1004.60
2018-09-23T09:13:00.070Z,1004.53
2018-09-23T09:14:10.277Z,1004.56
2018-09-23T09:15:00.082Z,1004.51
2018-09-23T09:15:59.954Z,1004.49
2018-09-23T09:16:59.911Z,1004.47
2018-09-23T09:17:59.896Z,1004.41
2018-09-23T09:18:59.814Z,1004.39
2018-09-23T09:19:59.755Z,1004.35
2018-09-23T09:20:59.741Z,1004.34
2018-09-23T09:21:59.700Z,1004.39
2018-09-23T09:22:59.672Z,1004.41
2018-09-23T09:23:59.610Z,1004.42
2018-09-23T09:24:59.564Z,1004.43
2018-09-23T09:25:59.540Z,1004.40
2018-09-23T09:26:59.517Z,1004.42
2018-09-23T09:27:59.479Z,1004.42
2018-09-23T09:28:59.430Z,1004.43
2018-09-23T09:29:59.377Z,1004.39
2018-09-23T09:30:59.338Z,1004.39
2018-09-23T09:31:59.287Z,1004.32
2018-09-23T09:32:59.272Z,1004.30
2018-09-23T09:33:59.221Z,1004.28
2018-09-23T09:34:59.172Z,1004.23
2018-09-23T09:35:59.171Z,1004.23
2018-09-23T09:36:59.148Z,1004.16
2018-09-23T09:38:09.582Z,1004.13
2018-09-23T09:38:59.015Z,1004.12
2018-09-23T09:39:59.079Z,1004.07
2018-09-23T09:40:58.954Z,1004.06
2018-09-23T09:41:58.952Z,1004.07
2018-09-23T09:42:58.858Z,1004.03
2018-09-23T09:43:58.828Z,1004.05
2018-09-23T09:44:58.769Z,1003.99
2018-09-23T09:45:58.756Z,1003.94
2018-09-23T09:46:58.729Z,1003.93
2018-09-23T09:47:58.664Z,1003.89
2018-09-23T09:48:58.628Z,1003.86
2018-09-23T09:49:58.584Z,1003.85
2018-09-23T09:50:58.541Z,1003.84
2018-09-23T09:51:58.595Z,1003.81
2018-09-23T09:52:58.480Z,1003.79
2018-09-23T09:53:58.528Z,1003.73
2018-09-23T09:54:58.414Z,1003.71
2018-09-23T09:55:58.354Z,1003.72
2018-09-23T09:56:58.346Z,1003.69
2018-09-23T09:57:58.405Z,1003.65
2018-09-23T09:58:58.237Z,1003.64
2018-09-23T09:59:58.198Z,1003.60
2018-09-23T10:00:58.180Z,1003.55
2018-09-23T10:02:07.126Z,1003.50
2018-09-23T10:02:58.074Z,1003.46
2018-09-23T10:03:58.184Z,1003.41
2018-09-23T10:04:57.996Z,1003.41
2018-09-23T10:05:58.019Z,1003.34
2018-09-23T10:06:57.926Z,1003.30
2018-09-23T10:07:57.874Z,1003.26
2018-09-23T10:08:57.847Z,1003.22
2018-09-23T10:09:57.825Z,1003.18
2018-09-23T10:10:57.766Z,1003.11
2018-09-23T10:11:57.738Z,1003.06
2018-09-23T10:12:57.682Z,1003.03
2018-09-23T10:13:57.636Z,1002.99
2018-09-23T10:14:57.590Z,1002.98
2018-09-23T10:15:57.791Z,1002.96
2018-09-23T10:16:57.568Z,1002.93
2018-09-23T10:17:57.537Z,1002.96
2018-09-23T10:18:57.463Z,1002.99
2018-09-23T10:19:57.539Z,1003.04
2018-09-23T10:20:57.503Z,1003.06
2018-09-23T10:21:57.323Z,1003.06
2018-09-23T10:22:57.313Z,1003.04
2018-09-23T10:23:57.263Z,1003.06
2018-09-23T10:24:57.340Z,1003.02
2018-09-23T10:25:57.219Z,1003.02
2018-09-23T10:26:57.123Z,1002.95
2018-09-23T10:27:57.095Z,1002.98
2018-09-23T10:28:57.042Z,1002.96
2018-09-23T10:29:57.143Z,1002.93
2018-09-23T10:30:57.100Z,1002.97
2018-09-23T10:31:56.936Z,1002.93
2018-09-23T10:32:56.884Z,1002.94
2018-09-23T10:33:56.836Z,1002.97
2018-09-23T10:34:56.815Z,1003.02
2018-09-23T10:35:56.789Z,1003.03
2018-09-23T10:36:56.745Z,1003.04
2018-09-23T10:37:56.686Z,1003.06
2018-09-23T10:38:56.637Z,1003.10
2018-09-23T10:39:56.737Z,1003.11
2018-09-23T10:40:56.614Z,1003.19
2018-09-23T10:41:56.530Z,1003.22
2018-09-23T10:42:56.504Z,1003.24
2018-09-23T10:43:56.447Z,1003.27
2018-09-23T10:44:56.399Z,1003.25
2018-09-23T10:45:56.385Z,1003.30
2018-09-23T10:46:56.316Z,1003.33
2018-09-23T10:47:56.287Z,1003.29
2018-09-23T10:48:56.244Z,1003.30
2018-09-23T10:49:56.202Z,1003.34
2018-09-23T10:50:56.186Z,1003.36
2018-09-23T10:51:56.120Z,1003.37
2018-09-23T10:52:56.139Z,1003.46
2018-09-23T10:53:56.053Z,1003.44
2018-09-23T10:54:56.038Z,1003.42
2018-09-23T10:55:55.989Z,1003.44
2018-09-23T10:56:55.995Z,1003.46
2018-09-23T10:57:55.892Z,1003.46
2018-09-23T10:58:55.842Z,1003.39
2018-09-23T10:59:55.853Z,1003.36
2018-09-23T11:00:55.791Z,1003.24
2018-09-23T11:01:55.748Z,1003.10
2018-09-23T11:02:55.698Z,1002.98
2018-09-23T11:03:55.768Z,1002.77
2018-09-23T11:04:55.629Z,1002.72
2018-09-23T11:05:55.575Z,1002.81
2018-09-23T11:06:55.514Z,1002.81
2018-09-23T11:07:55.527Z,1002.75
2018-09-23T11:08:55.450Z,1002.71
2018-09-23T11:09:55.459Z,1002.70
2018-09-23T11:10:55.359Z,1002.72
2018-09-23T11:11:55.330Z,1002.65
2018-09-23T11:12:55.306Z,1002.67
2018-09-23T11:13:55.258Z,1002.71
2018-09-23T11:14:55.232Z,1002.79
2018-09-23T11:15:55.191Z,1002.80
2018-09-23T11:16:55.124Z,1002.80
2018-09-23T11:17:55.082Z,1002.78
2018-09-23T11:18:55.061Z,1002.73
2018-09-23T11:19:55.025Z,1002.71
2018-09-23T11:20:54.974Z,1002.69
2018-09-23T11:21:54.934Z,1002.61
2018-09-23T11:22:54.904Z,1002.53
2018-09-23T11:23:54.836Z,1002.42
2018-09-23T11:24:54.894Z,1002.28
2018-09-23T11:25:54.791Z,1002.12
2018-09-23T11:26:54.731Z,1002.10
2018-09-23T11:27:54.707Z,1002.10
2018-09-23T11:28:54.647Z,1002.09
2018-09-23T11:29:54.621Z,1002.11
2018-09-23T11:30:54.563Z,1002.07
2018-09-23T11:31:54.550Z,1002.05
2018-09-23T11:32:54.517Z,1002.02
2018-09-23T11:33:54.466Z,1001.96
2018-09-23T11:34:54.430Z,1001.96
2018-09-23T11:36:04.665Z,1001.98
2018-09-23T11:36:54.318Z,1002.00
2018-09-23T11:37:54.295Z,1001.89
2018-09-23T11:38:54.251Z,1001.63
2018-09-23T11:39:54.276Z,1001.45
2018-09-23T11:40:54.177Z,1001.31
2018-09-23T11:41:54.124Z,1001.11
2018-09-23T11:42:54.154Z,1000.98
2018-09-23T11:43:54.059Z,1001.00
2018-09-23T11:44:54.035Z,1001.10
2018-09-23T11:45:53.972Z,1001.20
2018-09-23T11:46:53.926Z,1001.12
2018-09-23T11:47:53.882Z,1000.98
2018-09-23T11:48:53.851Z,1000.88
2018-09-23T11:49:53.867Z,1000.85
2018-09-23T11:50:53.781Z,1000.89
2018-09-23T11:51:53.739Z,1000.97
2018-09-23T11:52:53.698Z,1001.13
2018-09-23T11:53:53.676Z,1001.32
2018-09-23T11:54:53.611Z,1001.50
2018-09-23T11:55:53.576Z,1001.70
2018-09-23T11:56:53.534Z,1001.94
2018-09-23T11:57:53.506Z,1002.21
2018-09-23T11:58:53.499Z,1002.50
2018-09-23T11:59:53.444Z,1002.66
2018-09-23T12:00:53.388Z,1002.66
2018-09-23T12:01:53.349Z,1002.59
2018-09-23T12:02:53.305Z,1002.48
2018-09-23T12:03:53.280Z,1002.47
2018-09-23T12:04:53.213Z,1002.51